createdAt,value
2023-03-31T00:02:07.428Z,10.60
2023-03-31T00:04:37.619Z,10.70
2023-03-31T00:07:06.028Z,10.70
2023-03-31T00:09:33.565Z,10.70
2023-03-31T00:12:00.352Z,10.60
2023-03-31T00:14:34.489Z,10.60
2023-03-31T00:17:02.636Z,10.60
2023-03-31T00:19:29.752Z,10.60
2023-03-31T00:22:02.003Z,10.60
2023-03-31T00:24:33.137Z,10.60
2023-03-31T00:27:01.983Z,10.70
2023-03-31T00:29:29.419Z,10.60
2023-03-31T00:31:56.644Z,10.70
2023-03-31T00:34:28.063Z,10.70
2023-03-31T00:36:57.936Z,10.70
2023-03-31T00:39:25.026Z,10.70
2023-03-31T00:41:54.928Z,10.70
2023-03-31T00:44:24.777Z,10.60
2023-03-31T00:46:58.400Z,10.60
2023-03-31T00:49:28.031Z,10.70
2023-03-31T00:52:10.516Z,10.70
2023-03-31T00:54:38.815Z,10.60
2023-03-31T00:57:17.363Z,10.70
2023-03-31T00:59:48.702Z,10.70
2023-03-31T01:02:17.848Z,10.70
2023-03-31T01:04:51.025Z,10.70
2023-03-31T01:07:31.049Z,10.70
2023-03-31T01:10:04.437Z,10.70
2023-03-31T01:15:14.933Z,10.70
2023-03-31T01:17:45.069Z,10.70
2023-03-31T01:20:38.345Z,10.70
2023-03-31T01:23:41.856Z,10.70
2023-03-31T01:26:46.156Z,10.70
2023-03-31T01:29:46.488Z,10.70
2023-03-31T01:32:40.926Z,10.70
2023-03-31T01:35:19.778Z,10.70
2023-03-31T01:38:24.035Z,10.70
2023-03-31T01:41:26.406Z,10.70
2023-03-31T01:44:11.629Z,10.70
2023-03-31T01:46:56.792Z,10.70
2023-03-31T01:49:33.555Z,10.70
2023-03-31T01:52:25.299Z,10.70
2023-03-31T01:55:08.263Z,10.70
2023-03-31T01:57:39.912Z,10.70
2023-03-31T02:00:25.099Z,10.70
2023-03-31T02:03:05.944Z,10.70
2023-03-31T02:06:03.192Z,10.70
2023-03-31T02:08:36.308Z,10.70
2023-03-31T02:11:03.432Z,10.60
2023-03-31T02:13:34.454Z,10.70
2023-03-31T02:16:06.896Z,10.60
2023-03-31T02:18:38.208Z,10.70
2023-03-31T02:21:09.099Z,10.70
2023-03-31T02:23:38.818Z,10.60
2023-03-31T02:26:11.941Z,10.60
2023-03-31T02:28:40.782Z,10.60
2023-03-31T02:31:36.934Z,10.60
2023-03-31T02:34:04.127Z,10.60
2023-03-31T02:36:31.424Z,10.60
2023-03-31T02:39:22.007Z,10.60
2023-03-31T02:41:56.834Z,10.60
2023-03-31T02:44:25.617Z,10.60
2023-03-31T02:46:53.006Z,10.50
2023-03-31T02:49:23.125Z,10.50
2023-03-31T02:52:16.050Z,10.50
2023-03-31T02:54:45.149Z,10.40
2023-03-31T02:57:47.079Z,10.40
2023-03-31T03:00:17.191Z,10.30
2023-03-31T03:02:57.075Z,10.30
2023-03-31T03:05:28.329Z,10.20
2023-03-31T03:08:24.689Z,10.20
2023-03-31T03:11:11.421Z,10.10
2023-03-31T03:13:51.963Z,10.10
2023-03-31T03:16:25.665Z,10.10
2023-03-31T03:19:02.851Z,10.10
2023-03-31T03:21:31.433Z,10.10
2023-03-31T03:24:05.034Z,10.10
2023-03-31T03:26:35.220Z,10.10
2023-03-31T03:29:05.319Z,10.10
2023-03-31T03:31:38.187Z,10.10
2023-03-31T03:34:05.124Z,10.10
2023-03-31T03:36:35.295Z,10.10
2023-03-31T03:39:02.306Z,10.10
2023-03-31T03:41:31.616Z,10.10
2023-03-31T03:43:58.765Z,10.10
2023-03-31T03:46:25.855Z,10.10
2023-03-31T03:48:53.640Z,10.10
2023-03-31T03:51:21.874Z,10.10
2023-03-31T03:53:50.964Z,10.10
2023-03-31T03:56:22.249Z,10.10
2023-03-31T03:58:55.358Z,10.10
2023-03-31T04:01:24.668Z,10.10
2023-03-31T04:03:53.549Z,10.00
2023-03-31T04:06:30.858Z,10.10
2023-03-31T04:08:59.925Z,10.00
2023-03-31T04:11:26.835Z,10.00
2023-03-31T04:13:54.240Z,10.00
2023-03-31T04:16:23.068Z,10.00
2023-03-31T04:18:52.921Z,10.00
2023-03-31T04:21:23.592Z,10.00
2023-03-31T04:23:59.015Z,10.00
2023-03-31T04:26:31.062Z,10.00
2023-03-31T04:29:01.277Z,10.00
2023-03-31T04:31:30.921Z,10.00
2023-03-31T04:34:02.689Z,10.00
2023-03-31T04:36:31.493Z,10.00
2023-03-31T04:39:01.223Z,10.00
2023-03-31T04:41:28.525Z,10.00
2023-03-31T04:43:56.841Z,10.00
2023-03-31T04:46:24.272Z,10.10
2023-03-31T04:48:51.270Z,10.00
2023-03-31T04:51:20.306Z,10.00
2023-03-31T04:53:47.498Z,10.00
2023-03-31T04:56:14.454Z,10.00
2023-03-31T04:58:41.158Z,10.00
2023-03-31T05:01:08.364Z,10.00
2023-03-31T05:03:35.448Z,9.90
2023-03-31T05:06:02.477Z,10.00
2023-03-31T05:08:29.417Z,10.00
2023-03-31T05:10:56.500Z,10.00
2023-03-31T05:13:23.905Z,10.00
2023-03-31T05:15:51.757Z,10.00
2023-03-31T05:18:19.094Z,10.00
2023-03-31T05:20:47.097Z,10.10
2023-03-31T05:23:15.512Z,10.10
2023-03-31T05:25:42.686Z,10.10
2023-03-31T05:28:12.381Z,10.10
2023-03-31T05:30:39.381Z,10.10
2023-03-31T05:33:06.633Z,10.00
2023-03-31T05:35:33.594Z,10.00
2023-03-31T05:38:00.570Z,10.00
2023-03-31T05:40:27.578Z,10.00
2023-03-31T05:42:54.442Z,10.10
2023-03-31T05:45:21.272Z,10.10
2023-03-31T05:47:48.209Z,10.10
2023-03-31T05:50:15.173Z,10.10
2023-03-31T05:52:42.213Z,10.10
2023-03-31T05:55:09.776Z,10.20
2023-03-31T05:57:36.800Z,10.20
2023-03-31T06:00:06.249Z,10.30
2023-03-31T06:02:33.640Z,10.30
2023-03-31T06:05:00.745Z,10.30
2023-03-31T06:07:27.741Z,10.40
2023-03-31T06:09:54.702Z,10.40
2023-03-31T06:12:21.857Z,10.40
2023-03-31T06:14:48.881Z,10.40
2023-03-31T06:17:15.937Z,10.50
2023-03-31T06:19:42.946Z,10.60
2023-03-31T06:22:09.869Z,10.60
2023-03-31T06:24:36.920Z,10.60
2023-03-31T06:27:04.213Z,10.70
2023-03-31T06:29:31.130Z,10.70
2023-03-31T06:31:58.053Z,10.70
2023-03-31T06:34:25.101Z,10.80
2023-03-31T06:36:51.928Z,10.80
2023-03-31T06:39:18.846Z,10.90
2023-03-31T06:41:46.062Z,10.90
2023-03-31T06:44:13.029Z,11.00
2023-03-31T06:46:40.041Z,11.00
2023-03-31T06:49:06.845Z,11.10
2023-03-31T06:51:33.855Z,11.20
2023-03-31T06:54:01.189Z,11.30
2023-03-31T06:56:28.279Z,11.30
2023-03-31T06:58:55.228Z,11.40
2023-03-31T07:01:22.478Z,11.50
2023-03-31T07:03:49.606Z,11.50
2023-03-31T07:06:16.660Z,11.60
2023-03-31T07:08:43.853Z,11.60
2023-03-31T07:11:11.793Z,11.60
2023-03-31T07:13:38.942Z,11.60
2023-03-31T07:16:07.392Z,11.60
2023-03-31T07:18:35.475Z,11.60
2023-03-31T07:21:07.208Z,11.60
2023-03-31T07:23:37.050Z,11.60
2023-03-31T07:26:04.051Z,11.60
2023-03-31T07:28:31.041Z,11.60
2023-03-31T07:30:58.060Z,11.60
2023-03-31T07:33:25.695Z,11.60
2023-03-31T07:36:07.851Z,11.70
2023-03-31T07:38:38.569Z,11.60
2023-03-31T07:41:08.967Z,11.60
2023-03-31T07:43:36.963Z,11.60
2023-03-31T07:46:05.644Z,11.70
2023-03-31T07:48:33.838Z,11.70
2023-03-31T07:51:00.849Z,11.80
2023-03-31T07:53:27.908Z,11.80
2023-03-31T07:55:54.751Z,11.80
2023-03-31T07:58:21.622Z,11.90
2023-03-31T08:00:48.449Z,12.00
2023-03-31T08:03:15.801Z,12.00
2023-03-31T08:05:42.746Z,12.10
2023-03-31T08:08:09.876Z,12.20
2023-03-31T08:10:36.818Z,12.30
2023-03-31T08:13:03.669Z,12.40
2023-03-31T08:15:30.526Z,12.40
2023-03-31T08:17:57.452Z,12.50
2023-03-31T08:20:24.262Z,12.50
2023-03-31T08:22:51.594Z,12.60
2023-03-31T08:25:18.674Z,12.60
2023-03-31T08:27:46.691Z,12.70
2023-03-31T08:30:14.039Z,12.70
2023-03-31T08:32:41.300Z,12.80
2023-03-31T08:35:08.595Z,12.80
2023-03-31T08:37:36.365Z,12.80
2023-03-31T08:40:05.418Z,12.80
2023-03-31T08:42:47.623Z,12.80
2023-03-31T08:45:34.990Z,12.80
2023-03-31T08:48:28.616Z,12.80
2023-03-31T08:51:08.169Z,12.90
2023-03-31T08:53:42.235Z,12.90
2023-03-31T08:56:17.164Z,13.00
2023-03-31T08:58:49.024Z,13.00
2023-03-31T09:01:47.963Z,13.10
2023-03-31T09:04:31.452Z,13.20
2023-03-31T09:07:26.269Z,13.20
2023-03-31T09:10:11.838Z,13.30
2023-03-31T09:13:02.721Z,13.30
2023-03-31T09:15:46.553Z,13.40
2023-03-31T09:18:19.857Z,13.40
2023-03-31T09:20:52.939Z,13.40
2023-03-31T09:23:26.134Z,13.40
2023-03-31T09:25:53.890Z,13.40
2023-03-31T09:28:23.752Z,13.50
2023-03-31T09:30:51.370Z,13.60
2023-03-31T09:33:33.724Z,13.70
2023-03-31T09:36:02.155Z,13.90
2023-03-31T09:38:31.168Z,14.00
2023-03-31T09:41:02.359Z,14.20
2023-03-31T09:43:35.360Z,14.20
2023-03-31T09:46:09.796Z,14.20
2023-03-31T09:48:38.906Z,14.20
2023-03-31T09:51:11.221Z,14.10
2023-03-31T09:53:53.349Z,14.00
2023-03-31T09:56:48.991Z,13.90
2023-03-31T09:59:41.487Z,13.80
2023-03-31T10:02:33.360Z,13.70
2023-03-31T10:05:00.523Z,13.70
2023-03-31T10:07:27.967Z,13.60
2023-03-31T10:09:55.641Z,13.70
2023-03-31T10:12:25.773Z,13.80
2023-03-31T10:14:54.822Z,13.90
2023-03-31T10:17:24.502Z,14.10
2023-03-31T10:19:59.421Z,14.30
2023-03-31T10:22:32.475Z,14.60
2023-03-31T10:25:33.121Z,14.70
2023-03-31T10:28:02.912Z,14.90
2023-03-31T10:30:38.304Z,15.00
2023-03-31T10:33:22.777Z,15.20
2023-03-31T10:35:57.275Z,15.50
2023-03-31T10:38:29.916Z,15.60
2023-03-31T10:41:00.657Z,15.50
2023-03-31T10:43:41.472Z,15.50
2023-03-31T10:46:10.016Z,15.50
2023-03-31T10:48:42.270Z,15.60
2023-03-31T10:51:25.724Z,15.60
2023-03-31T10:53:55.224Z,15.70
2023-03-31T10:56:57.220Z,15.70
2023-03-31T10:59:30.095Z,15.60
2023-03-31T11:02:20.437Z,15.60
2023-03-31T11:05:02.265Z,15.60
2023-03-31T11:07:50.977Z,15.70
2023-03-31T11:10:32.783Z,15.70
2023-03-31T11:13:18.136Z,15.80
2023-03-31T11:16:15.946Z,16.00
2023-03-31T11:19:02.690Z,16.10
2023-03-31T11:21:39.779Z,16.20
2023-03-31T11:24:06.948Z,16.30
2023-03-31T11:26:33.942Z,16.30
2023-03-31T11:29:31.497Z,16.50
2023-03-31T11:32:16.523Z,16.50
2023-03-31T11:35:05.157Z,16.60
2023-03-31T11:38:04.611Z,16.70
2023-03-31T11:40:34.628Z,16.80
2023-03-31T11:43:30.030Z,16.90
2023-03-31T11:46:08.464Z,17.00
2023-03-31T11:48:58.337Z,17.10
2023-03-31T11:51:42.740Z,17.30
2023-03-31T11:54:29.053Z,17.70
2023-03-31T11:56:56.872Z,17.90
2023-03-31T11:59:29.990Z,17.90
2023-03-31T12:02:00.178Z,17.80
2023-03-31T12:04:40.834Z,17.80
2023-03-31T12:07:24.056Z,18.00
2023-03-31T12:10:12.563Z,18.00
2023-03-31T12:12:45.600Z,18.10
2023-03-31T12:15:24.153Z,18.00
2023-03-31T12:18:18.553Z,18.00
2023-03-31T12:20:58.097Z,18.00
2023-03-31T12:23:30.981Z,18.10
2023-03-31T12:26:23.926Z,18.20
2023-03-31T12:28:57.125Z,18.20
2023-03-31T12:31:28.465Z,18.10
2023-03-31T12:34:03.406Z,18.10
2023-03-31T12:36:58.691Z,17.80
2023-03-31T12:39:48.831Z,17.60
2023-03-31T12:42:52.623Z,17.20
2023-03-31T12:45:31.459Z,16.90
2023-03-31T12:48:17.205Z,16.70
2023-03-31T12:51:22.003Z,16.70
2023-03-31T12:54:01.780Z,16.90
2023-03-31T12:57:03.050Z,17.20
2023-03-31T12:59:29.932Z,17.40
2023-03-31T13:02:15.487Z,17.50
2023-03-31T13:04:43.775Z,17.50
2023-03-31T13:07:29.189Z,17.40
2023-03-31T13:10:21.703Z,17.40
2023-03-31T13:13:13.452Z,17.30
2023-03-31T13:15:40.486Z,17.20
2023-03-31T13:18:08.336Z,17.10
2023-03-31T13:20:40.628Z,17.00
2023-03-31T13:23:11.583Z,17.00
2023-03-31T13:25:57.101Z,16.90
2023-03-31T13:28:24.393Z,16.90
2023-03-31T13:31:07.376Z,16.90
2023-03-31T13:33:58.221Z,16.90
2023-03-31T13:36:35.002Z,16.90
2023-03-31T13:39:20.741Z,17.00
2023-03-31T13:41:53.573Z,17.00
2023-03-31T13:44:32.625Z,17.10
2023-03-31T13:47:11.227Z,17.10
2023-03-31T13:49:54.029Z,17.10
2023-03-31T13:52:38.131Z,17.20
2023-03-31T13:55:15.883Z,17.20
2023-03-31T13:58:30.026Z,17.10
2023-03-31T14:01:32.331Z,17.00
2023-03-31T14:04:26.757Z,16.80
2023-03-31T14:06:56.429Z,16.70
2023-03-31T14:09:32.541Z,16.50
2023-03-31T14:12:00.420Z,16.40
2023-03-31T14:14:29.810Z,16.30
2023-03-31T14:17:02.531Z,16.20
2023-03-31T14:20:08.042Z,16.10
2023-03-31T14:22:47.465Z,16.10
2023-03-31T14:25:31.203Z,16.10
2023-03-31T14:28:19.670Z,16.00
2023-03-31T14:31:11.443Z,16.00
2023-03-31T14:34:26.456Z,16.00
2023-03-31T14:37:06.394Z,16.00
2023-03-31T14:39:41.511Z,15.90
2023-03-31T14:42:16.978Z,15.80
2023-03-31T14:44:47.864Z,15.80
2023-03-31T14:47:20.766Z,15.70
2023-03-31T14:49:48.471Z,15.50
2023-03-31T14:52:24.168Z,15.20
2023-03-31T14:54:53.064Z,14.90
2023-03-31T14:57:28.278Z,14.40
2023-03-31T15:00:06.092Z,14.00
2023-03-31T15:02:36.342Z,13.50
2023-03-31T15:05:07.947Z,13.10
2023-03-31T15:07:35.678Z,12.70
2023-03-31T15:10:03.773Z,12.40
2023-03-31T15:12:31.193Z,12.20
2023-03-31T15:15:04.458Z,12.10
2023-03-31T15:17:37.091Z,11.90
2023-03-31T15:20:28.139Z,11.90
2023-03-31T15:22:57.226Z,11.80
2023-03-31T15:25:32.844Z,11.80
2023-03-31T15:28:11.357Z,11.80
2023-03-31T15:30:38.536Z,11.80
2023-03-31T15:35:57.049Z,11.90
2023-03-31T15:38:28.204Z,12.00
2023-03-31T15:40:57.111Z,12.10
2023-03-31T15:43:46.445Z,12.20
2023-03-31T15:46:51.305Z,12.40
2023-03-31T15:49:23.015Z,12.40
2023-03-31T15:51:53.121Z,12.50
2023-03-31T15:54:41.088Z,12.50
2023-03-31T15:57:09.695Z,12.60
2023-03-31T15:59:55.888Z,12.50
2023-03-31T16:02:43.160Z,12.60
2023-03-31T16:05:29.348Z,12.60
2023-03-31T16:07:58.346Z,12.60
2023-03-31T16:10:30.051Z,12.60
2023-03-31T16:13:02.026Z,12.60
2023-03-31T16:15:40.484Z,12.60
2023-03-31T16:18:17.652Z,12.50
2023-03-31T16:20:53.281Z,12.50
2023-03-31T16:23:31.112Z,12.60
2023-03-31T16:25:59.251Z,12.60
2023-03-31T16:28:35.330Z,12.50
2023-03-31T16:31:02.560Z,12.50
2023-03-31T16:33:55.308Z,12.60
2023-03-31T16:36:22.324Z,12.50
2023-03-31T16:38:53.996Z,12.40
2023-03-31T16:41:27.499Z,12.40
2023-03-31T16:43:57.456Z,12.50
2023-03-31T16:46:24.923Z,12.40
2023-03-31T16:48:53.306Z,12.40
2023-03-31T16:51:20.662Z,12.40
2023-03-31T16:53:48.951Z,12.30
2023-03-31T16:56:16.672Z,12.30
2023-03-31T16:58:43.851Z,12.20
2023-03-31T17:01:11.886Z,12.10
2023-03-31T17:03:41.914Z,12.00
2023-03-31T17:06:12.160Z,11.90
2023-03-31T17:08:40.091Z,11.80
2023-03-31T17:11:14.625Z,11.50
2023-03-31T17:13:43.479Z,11.30
2023-03-31T17:16:17.506Z,11.20
2023-03-31T17:18:49.301Z,11.00
2023-03-31T17:21:19.331Z,10.90
2023-03-31T17:23:46.929Z,10.80
2023-03-31T17:26:14.435Z,10.90
2023-03-31T17:28:42.568Z,10.80
2023-03-31T17:31:18.003Z,10.90
2023-03-31T17:33:45.377Z,11.00
2023-03-31T17:36:13.252Z,11.00
2023-03-31T17:38:41.983Z,11.00
2023-03-31T17:41:12.777Z,11.10
2023-03-31T17:43:40.223Z,11.10
2023-03-31T17:46:12.913Z,11.10
2023-03-31T17:48:41.206Z,11.20
2023-03-31T17:51:12.084Z,11.20
2023-03-31T17:53:39.997Z,11.20
2023-03-31T17:56:07.181Z,11.30
2023-03-31T17:58:34.100Z,11.30
2023-03-31T18:01:03.404Z,11.30
2023-03-31T18:03:30.623Z,11.30
2023-03-31T18:06:04.741Z,11.40
2023-03-31T18:08:34.731Z,11.30
2023-03-31T18:11:03.422Z,11.30
2023-03-31T18:13:30.751Z,11.30
2023-03-31T18:15:58.042Z,11.30
2023-03-31T18:18:28.345Z,11.30
2023-03-31T18:20:56.715Z,11.20
2023-03-31T18:23:24.332Z,11.20
2023-03-31T18:25:51.780Z,11.20
2023-03-31T18:28:18.801Z,11.20
2023-03-31T18:30:47.223Z,11.20
2023-03-31T18:33:14.593Z,11.10
2023-03-31T18:35:41.742Z,11.20
2023-03-31T18:38:09.981Z,11.10
2023-03-31T18:40:37.797Z,11.10
2023-03-31T18:43:05.192Z,11.10
2023-03-31T18:45:33.312Z,11.10
2023-03-31T18:48:00.686Z,11.10
2023-03-31T18:50:27.482Z,11.10
2023-03-31T18:52:54.668Z,11.10
2023-03-31T18:55:22.472Z,11.10
2023-03-31T18:57:49.626Z,11.20
2023-03-31T19:00:17.350Z,11.10
2023-03-31T19:02:44.433Z,11.10
2023-03-31T19:05:11.512Z,11.10
2023-03-31T19:07:39.250Z,11.20
2023-03-31T19:10:07.111Z,11.20
2023-03-31T19:12:34.082Z,11.20
2023-03-31T19:15:01.137Z,11.20
2023-03-31T19:17:28.360Z,11.10
2023-03-31T19:19:55.864Z,11.10
2023-03-31T19:22:22.706Z,11.10
2023-03-31T19:24:49.597Z,11.10
2023-03-31T19:27:16.898Z,11.00
2023-03-31T19:29:43.685Z,11.10
2023-03-31T19:32:10.557Z,11.10
2023-03-31T19:34:38.283Z,11.10
2023-03-31T19:37:05.265Z,11.00
2023-03-31T19:39:33.991Z,11.10
2023-03-31T19:42:00.844Z,11.10
2023-03-31T19:44:28.366Z,11.10
2023-03-31T19:46:55.196Z,11.10
2023-03-31T19:49:22.016Z,11.10
2023-03-31T19:51:48.835Z,11.10
2023-03-31T19:54:15.989Z,11.10
2023-03-31T19:56:43.210Z,11.10
2023-03-31T19:59:10.146Z,11.10
2023-03-31T20:01:37.489Z,11.00
2023-03-31T20:04:04.709Z,11.00
2023-03-31T20:06:33.728Z,11.00
2023-03-31T20:09:02.056Z,11.10
2023-03-31T20:11:31.055Z,11.00
2023-03-31T20:13:58.864Z,11.00
2023-03-31T20:16:28.318Z,10.90
2023-03-31T20:18:57.789Z,10.90
2023-03-31T20:21:27.292Z,11.00
2023-03-31T20:23:55.125Z,10.90
2023-03-31T20:26:25.282Z,10.90
2023-03-31T20:28:53.417Z,11.00
2023-03-31T20:31:22.639Z,10.90
2023-03-31T20:33:51.339Z,10.90
2023-03-31T20:36:24.083Z,11.00
2023-03-31T20:38:53.252Z,11.00
2023-03-31T20:41:24.025Z,11.00
2023-03-31T20:43:50.941Z,11.00
2023-03-31T20:46:18.694Z,11.10
2023-03-31T20:48:48.576Z,11.10
2023-03-31T20:51:18.576Z,11.10
2023-03-31T20:53:47.604Z,11.00
2023-03-31T20:56:23.279Z,11.10
2023-03-31T20:58:50.903Z,11.00
2023-03-31T21:01:18.414Z,11.10
2023-03-31T21:03:46.186Z,11.00
2023-03-31T21:06:14.944Z,11.10
2023-03-31T21:08:47.485Z,11.10
2023-03-31T21:11:14.463Z,11.10
2023-03-31T21:13:41.644Z,11.10
2023-03-31T21:16:08.591Z,11.10
2023-03-31T21:18:37.621Z,11.10
2023-03-31T21:21:09.484Z,11.10
2023-03-31T21:23:36.500Z,11.10
2023-03-31T21:26:05.745Z,11.10
2023-03-31T21:28:36.351Z,11.00
2023-03-31T21:31:10.272Z,11.00
2023-03-31T21:33:40.462Z,11.00
2023-03-31T21:36:11.055Z,11.00
2023-03-31T21:38:38.701Z,11.00
2023-03-31T21:41:15.242Z,11.00
2023-03-31T21:43:43.143Z,11.00
2023-03-31T21:46:15.812Z,11.00
2023-03-31T21:48:42.812Z,11.00
2023-03-31T21:51:10.868Z,11.00
2023-03-31T21:53:37.644Z,10.90
2023-03-31T21:56:04.636Z,10.90
2023-03-31T21:58:31.703Z,11.00
2023-03-31T22:01:01.303Z,10.90
2023-03-31T22:03:29.145Z,10.90
2023-03-31T22:05:57.536Z,10.90
2023-03-31T22:08:26.939Z,10.90
2023-03-31T22:10:54.730Z,10.90
2023-03-31T22:13:24.280Z,11.00
2023-03-31T22:15:51.380Z,10.90
2023-03-31T22:18:19.045Z,10.90
2023-03-31T22:20:46.761Z,10.90
2023-03-31T22:23:14.008Z,11.00
2023-03-31T22:25:41.249Z,11.00
2023-03-31T22:28:09.123Z,10.90
2023-03-31T22:30:36.991Z,10.90
2023-03-31T22:33:04.930Z,10.80
2023-03-31T22:35:31.997Z,10.80
2023-03-31T22:37:59.138Z,10.80
2023-03-31T22:40:26.382Z,10.70
2023-03-31T22:42:54.801Z,10.70
2023-03-31T22:45:21.845Z,10.60
2023-03-31T22:47:48.971Z,10.60
2023-03-31T22:50:16.148Z,10.60
2023-03-31T22:52:45.448Z,10.50
2023-03-31T22:55:12.632Z,10.50
2023-03-31T22:57:39.743Z,10.50
2023-03-31T23:00:07.678Z,10.50
2023-03-31T23:06:36.163Z,10.40
2023-03-31T23:09:03.304Z,10.40
2023-03-31T23:11:30.499Z,10.40
2023-03-31T23:13:57.351Z,10.40
2023-03-31T23:16:26.348Z,10.30
2023-03-31T23:18:56.068Z,10.40
2023-03-31T23:21:26.190Z,10.40
2023-03-31T23:23:56.542Z,10.40
2023-03-31T23:26:26.703Z,10.40
2023-03-31T23:28:54.284Z,10.40
2023-03-31T23:31:27.121Z,10.30
2023-03-31T23:33:54.109Z,10.30
2023-03-31T23:36:21.472Z,10.30
2023-03-31T23:38:50.613Z,10.30
2023-03-31T23:41:18.821Z,10.20
2023-03-31T23:43:46.902Z,10.20
2023-03-31T23:46:13.728Z,10.20
2023-03-31T23:48:40.858Z,10.20
2023-03-31T23:51:08.776Z,10.20
2023-03-31T23:53:36.446Z,10.20
2023-03-31T23:56:07.578Z,10.20
2023-03-31T23:58:34.863Z,10.20
